Time;durP1;ratioP1;P1;durP2;ratioP2;P2;SDS_P1;SDS_P2;PMS_P1;PMS_P2;Temp;Humidity;BMP_temperature;BMP_pressure;BME280_temperature;BME280_humidity;BME280_pressure;Samples;Min_cycle;Max_cycle;Signal;HPM_P1;HPM_P2
2023/12/25 00:00:26;;;;;;;4.27;2.70;;;;;;;9.69;100.00;101010.81;2081178;28;20181;-74
2023/12/25 00:01:27;;;;;;;11.87;3.00;;;;;;;9.77;100.00;101019.81;2081239;28;20640;-73
2023/12/25 00:02:27;;;;;;;6.70;2.80;;;;;;;9.69;100.00;101008.06;2080092;28;20188;-74
2023/12/25 00:03:28;;;;;;;6.00;2.93;;;;;;;9.83;100.00;101023.66;2080330;28;20604;-73
2023/12/25 00:04:28;;;;;;;6.97;2.90;;;;;;;9.88;100.00;101023.19;2080181;28;20702;-74
2023/12/25 00:05:29;;;;;;;7.57;3.50;;;;;;;9.89;100.00;101022.03;2079889;28;20625;-74
2023/12/25 00:06:29;;;;;;;5.83;3.30;;;;;;;9.96;100.00;101016.38;2080467;28;20205;-74
2023/12/25 00:07:30;;;;;;;10.77;3.93;;;;;;;9.32;100.00;100921.66;2081002;28;20177;-73
2023/12/25 00:08:30;;;;;;;10.33;3.70;;;;;;;9.24;100.00;100920.97;2080697;28;20185;-74
2023/12/25 00:09:31;;;;;;;5.63;3.33;;;;;;;9.97;100.00;101020.69;2080069;28;20246;-73
2023/12/25 00:10:32;;;;;;;7.73;3.07;;;;;;;10.00;100.00;101015.09;2080315;28;20626;-74
2023/12/25 00:11:32;;;;;;;7.27;3.20;;;;;;;9.42;100.00;100921.50;2079754;28;20608;-74
2023/12/25 00:12:33;;;;;;;8.27;3.10;;;;;;;9.29;100.00;100911.44;2080676;28;20512;-74
2023/12/25 00:13:33;;;;;;;6.60;2.93;;;;;;;10.00;100.00;101014.34;2080748;28;20630;-73
2023/12/25 00:14:34;;;;;;;6.73;3.00;;;;;;;9.60;100.00;100935.88;2080392;28;20192;-74
2023/12/25 00:15:34;;;;;;;5.43;2.70;;;;;;;10.00;100.00;101006.03;2081030;28;20186;-74
2023/12/25 00:16:35;;;;;;;7.50;3.00;;;;;;;10.02;100.00;101004.41;2079218;28;20185;-73
2023/12/25 00:17:35;;;;;;;7.73;2.73;;;;;;;9.48;100.00;100916.28;2080023;28;20197;-73
2023/12/25 00:18:36;;;;;;;7.80;3.10;;;;;;;10.19;100.00;101008.16;2080781;28;20235;-73
2023/12/25 00:19:37;;;;;;;6.47;2.63;;;;;;;9.59;100.00;100894.78;2080439;28;20193;-74
2023/12/25 00:20:40;;;;;;;5.97;2.90;;;;;;;10.00;100.00;100978.34;2080537;28;20185;-73
2023/12/25 00:21:40;;;;;;;7.73;3.13;;;;;;;10.24;100.00;100993.81;2079585;28;20930;-73
2023/12/25 00:22:41;;;;;;;7.70;3.27;;;;;;;10.34;100.00;101001.13;2080031;28;20851;-73
2023/12/25 00:23:41;;;;;;;7.83;3.20;;;;;;;10.30;100.00;100994.91;2080398;28;20662;-74
2023/12/25 00:24:43;;;;;;;9.63;3.57;;;;;;;9.36;100.00;100844.94;2080647;28;20182;-74
2023/12/25 00:25:44;;;;;;;7.97;3.00;;;;;;;9.39;100.00;100855.19;2080461;28;20238;-74
2023/12/25 00:26:44;;;;;;;4.60;2.73;;;;;;;10.44;100.00;101022.34;2080390;28;20448;-73
2023/12/25 00:27:46;;;;;;;6.47;2.77;;;;;;;10.30;100.00;100992.13;2080511;28;20667;-74
2023/12/25 00:28:47;;;;;;;7.33;2.90;;;;;;;10.48;100.00;101009.22;2080978;28;20188;-74
2023/12/25 00:29:48;;;;;;;6.40;3.10;;;;;;;10.44;100.00;101009.28;2080487;28;20426;-73
2023/12/25 00:30:48;;;;;;;8.30;2.50;;;;;;;10.56;100.00;101013.44;2080206;28;20581;-73
2023/12/25 00:31:49;;;;;;;6.67;2.17;;;;;;;10.62;100.00;101020.06;2080976;28;20633;-73
2023/12/25 00:32:49;;;;;;;4.53;2.30;;;;;;;10.57;100.00;101017.78;2079928;28;20193;-74
2023/12/25 00:33:50;;;;;;;3.33;1.97;;;;;;;10.61;100.00;101021.28;2081346;28;20183;-73
2023/12/25 00:34:50;;;;;;;4.93;2.30;;;;;;;10.58;100.00;101013.78;2080746;28;20267;-73
2023/12/25 00:35:51;;;;;;;6.00;2.40;;;;;;;10.61;100.00;101012.97;2080647;28;20185;-74
2023/12/25 00:36:51;;;;;;;5.20;2.30;;;;;;;10.45;100.00;100987.91;2080985;28;20658;-74
2023/12/25 00:37:52;;;;;;;8.07;3.13;;;;;;;10.52;100.00;101004.41;2081129;28;20217;-73
2023/12/25 00:38:52;;;;;;;5.20;2.63;;;;;;;10.15;100.00;100936.16;2079327;28;20184;-73
2023/12/25 00:39:53;;;;;;;5.63;2.57;;;;;;;10.58;100.00;101009.03;2080883;28;20187;-73
2023/12/25 00:40:53;;;;;;;6.10;2.83;;;;;;;10.23;100.00;100948.72;2080609;28;20789;-73
2023/12/25 00:41:54;;;;;;;4.50;2.50;;;;;;;10.58;100.00;101009.03;2081066;28;20650;-73
2023/12/25 00:42:54;;;;;;;4.97;2.50;;;;;;;10.69;100.00;101019.94;2080777;28;20770;-74
2023/12/25 00:43:55;;;;;;;5.43;1.97;;;;;;;10.66;100.00;101020.78;2080269;28;20192;-74
2023/12/25 00:44:55;;;;;;;6.17;2.53;;;;;;;10.66;100.00;101020.78;2080894;28;20701;-74
2023/12/25 00:45:57;;;;;;;5.10;2.60;;;;;;;10.37;100.00;100970.63;2080790;28;20194;-73
2023/12/25 00:46:58;;;;;;;4.53;2.20;;;;;;;10.15;100.00;100949.25;2080687;28;20201;-73
2023/12/25 00:47:58;;;;;;;3.97;1.87;;;;;;;10.66;100.00;101027.09;2080745;28;20444;-73
2023/12/25 00:48:59;;;;;;;4.37;2.43;;;;;;;10.65;100.00;101020.00;2080896;28;20254;-73
2023/12/25 00:49:59;;;;;;;5.00;2.23;;;;;;;10.58;100.00;101022.91;2087845;28;20223;-73
2023/12/25 00:51:00;;;;;;;5.07;2.33;;;;;;;10.49;100.00;101006.03;2079928;28;20185;-73
2023/12/25 00:52:00;;;;;;;5.60;2.33;;;;;;;10.24;100.00;100966.13;2079982;28;20223;-73
2023/12/25 00:53:01;;;;;;;4.77;2.10;;;;;;;10.56;100.00;101022.53;2078711;28;20181;-73
2023/12/25 00:54:02;;;;;;;5.10;2.13;;;;;;;9.79;100.00;100892.88;2071960;28;20189;-73
2023/12/25 00:55:02;;;;;;;6.37;2.70;;;;;;;10.61;100.00;101021.28;2071929;28;20271;-74
2023/12/25 00:57:22;;;;;;;3.93;2.00;;;;;;;9.81;100.00;100907.88;2080271;28;20637;-73
2023/12/25 00:58:23;;;;;;;4.57;2.30;;;;;;;10.54;100.00;101015.84;2080613;28;20867;-74
2023/12/25 00:59:23;;;;;;;6.23;2.33;;;;;;;10.28;100.00;100969.59;2080546;28;20668;-73
2023/12/25 01:00:24;;;;;;;3.80;1.87;;;;;;;10.67;100.00;101033.44;2081051;28;20185;-74
2023/12/25 01:01:24;;;;;;;4.03;2.13;;;;;;;10.63;100.00;101018.84;2080212;28;20199;-74
2023/12/25 01:02:25;;;;;;;4.80;2.70;;;;;;;10.64;100.00;101012.88;2080926;28;20196;-73
2023/12/25 01:03:25;;;;;;;5.40;2.43;;;;;;;10.58;100.00;101017.34;2080059;28;20189;-73
2023/12/25 01:04:26;;;;;;;6.03;2.30;;;;;;;10.66;100.00;101029.09;2080056;28;20185;-74
2023/12/25 01:05:27;;;;;;;5.33;1.97;;;;;;;10.10;100.00;100944.19;2080792;28;20176;-74
2023/12/25 01:06:27;;;;;;;7.03;2.30;;;;;;;10.64;100.00;101023.19;2080749;28;20212;-74
2023/12/25 01:07:28;;;;;;;4.17;2.13;;;;;;;10.65;100.00;101030.31;2079732;28;20223;-74
2023/12/25 01:08:28;;;;;;;7.50;3.43;;;;;;;10.59;100.00;101038.31;2080613;28;20201;-73
2023/12/25 01:09:29;;;;;;;8.70;3.23;;;;;;;10.43;100.00;101004.16;2079163;28;20650;-73
2023/12/25 01:10:30;;;;;;;5.13;2.87;;;;;;;10.20;100.00;100988.31;2080305;28;20192;-73
2023/12/25 01:11:31;;;;;;;7.20;3.57;;;;;;;9.86;100.00;100948.91;2080017;28;20613;-74
2023/12/25 01:12:31;;;;;;;4.63;2.47;;;;;;;9.92;100.00;100960.28;2080091;28;20185;-74
2023/12/25 01:13:32;;;;;;;7.07;3.57;;;;;;;10.43;100.00;101040.97;2080083;28;20929;-73
2023/12/25 01:14:32;;;;;;;7.03;3.23;;;;;;;9.93;100.00;100959.84;2080605;28;20646;-73
2023/12/25 01:15:33;;;;;;;6.73;3.43;;;;;;;10.38;100.00;101038.69;2079602;28;20677;-73
2023/12/25 01:16:34;;;;;;;8.70;3.53;;;;;;;10.40;100.00;101041.03;2079424;28;20732;-73
2023/12/25 01:17:35;;;;;;;9.23;3.97;;;;;;;10.06;100.00;100979.47;2079493;28;20650;-72
2023/12/25 01:18:35;;;;;;;5.67;3.30;;;;;;;10.35;100.00;101033.22;2079808;28;20801;-73
2023/12/25 01:19:36;;;;;;;8.93;4.63;;;;;;;10.39;100.00;101031.94;2079507;28;20180;-73
2023/12/25 01:20:36;;;;;;;7.37;4.37;;;;;;;10.41;100.00;101046.13;2080604;28;20188;-73
2023/12/25 01:21:37;;;;;;;12.50;6.03;;;;;;;9.94;100.00;100986.34;2079646;28;20262;-73
2023/12/25 01:22:37;;;;;;;11.27;6.33;;;;;;;10.28;100.00;101058.22;2079205;28;20188;-73
2023/12/25 01:23:38;;;;;;;11.30;6.47;;;;;;;10.23;100.00;101056.72;2080597;28;20191;-73
2023/12/25 01:24:38;;;;;;;10.17;6.80;;;;;;;9.92;100.00;101021.19;2079845;28;20200;-74
2023/12/25 01:25:40;;;;;;;12.70;7.40;;;;;;;10.13;100.00;101060.44;2079160;28;20267;-73
2023/12/25 01:26:40;;;;;;;11.47;6.63;;;;;;;9.88;100.00;101037.84;2079995;28;20674;-74
2023/12/25 01:27:41;;;;;;;12.17;7.30;;;;;;;9.93;100.00;101067.81;2079467;28;21670;-73
2023/12/25 01:28:41;;;;;;;11.53;7.10;;;;;;;9.50;100.00;101022.56;2079714;28;20666;-74
2023/12/25 01:29:42;;;;;;;10.03;5.87;;;;;;;9.69;100.00;101063.41;2079927;28;20948;-73
2023/12/25 01:30:43;;;;;;;12.40;6.47;;;;;;;9.50;100.00;101063.28;2080406;28;20716;-74
2023/12/25 01:31:43;;;;;;;17.83;6.77;;;;;;;9.32;100.00;101046.13;2078659;28;20193;-74
2023/12/25 01:32:44;;;;;;;10.53;6.70;;;;;;;9.48;100.00;101073.97;2079495;28;20481;-73
2023/12/25 01:33:45;;;;;;;11.90;6.73;;;;;;;9.42;100.00;101076.41;2079800;28;20264;-73
2023/12/25 01:34:46;;;;;;;11.97;6.77;;;;;;;9.37;100.00;101048.44;2078637;28;20740;-73
2023/12/25 01:35:46;;;;;;;11.37;6.37;;;;;;;9.13;100.00;101036.44;2079032;28;20187;-73
2023/12/25 01:36:46;;;;;;;12.73;6.47;;;;;;;8.99;100.00;101013.72;2086399;28;20434;-73
2023/12/25 01:37:47;;;;;;;10.67;6.30;;;;;;;9.27;100.00;101052.88;2078793;28;20580;-74
2023/12/25 01:38:47;;;;;;;10.83;6.30;;;;;;;9.26;100.00;101081.72;2079676;28;20693;-74
2023/12/25 01:39:48;;;;;;;12.67;6.60;;;;;;;8.69;100.00;100977.72;2079639;28;20728;-75
2023/12/25 01:40:48;;;;;;;13.33;6.93;;;;;;;9.08;100.00;101052.72;2078685;28;20192;-74
2023/12/25 01:41:49;;;;;;;11.87;5.90;;;;;;;8.61;100.00;100963.19;2078918;28;20199;-74
2023/12/25 01:42:49;;;;;;;10.17;5.73;;;;;;;8.96;100.00;101028.38;2079217;28;20185;-74
2023/12/25 01:43:50;;;;;;;13.53;6.83;;;;;;;9.06;100.00;101050.34;2079028;28;20192;-74
2023/12/25 01:44:50;;;;;;;16.97;6.70;;;;;;;8.70;100.00;100993.09;2080377;28;20194;-74
2023/12/25 01:45:51;;;;;;;11.93;6.53;;;;;;;8.82;100.00;101026.50;2079823;28;20200;-73
2023/12/25 01:46:52;;;;;;;11.80;6.77;;;;;;;9.03;100.00;101051.16;2079417;28;20208;-73
2023/12/25 01:47:52;;;;;;;11.43;6.30;;;;;;;8.95;100.00;101057.97;2080246;28;20196;-73
2023/12/25 01:48:53;;;;;;;8.50;5.90;;;;;;;8.93;100.00;101049.31;2080494;28;21109;-73
2023/12/25 01:49:54;;;;;;;11.27;6.25;;;;;;;8.44;100.00;100972.44;2079921;28;20584;-74
2023/12/25 01:50:59;;;;;;;10.00;5.40;;;;;;;8.89;100.00;101045.81;2079488;28;20267;-74
2023/12/25 01:51:59;;;;;;;12.17;7.03;;;;;;;8.87;100.00;101047.41;2080305;28;20187;-73
2023/12/25 01:53:01;;;;;;;12.90;6.20;;;;;;;8.62;100.00;101022.00;2080131;28;20942;-74
2023/12/25 01:54:04;;;;;;;13.90;6.80;;;;;;;8.60;100.00;101010.56;2080168;28;20732;-74
2023/12/25 01:55:05;;;;;;;10.03;5.93;;;;;;;8.80;100.00;101036.41;2080105;28;20445;-73
2023/12/25 01:56:06;;;;;;;11.10;6.00;;;;;;;8.80;100.00;101039.19;2087447;28;20466;-73
2023/12/25 01:57:07;;;;;;;10.77;6.40;;;;;;;8.80;100.00;101031.69;2086477;28;20465;-73
2023/12/25 01:58:07;;;;;;;8.10;5.60;;;;;;;8.42;100.00;100976.81;2080295;28;20221;-73
2023/12/25 01:59:08;;;;;;;10.63;6.00;;;;;;;7.74;100.00;100872.91;2078974;28;20207;-74
2023/12/25 02:00:09;;;;;;;11.40;6.37;;;;;;;8.62;100.00;101031.06;2080130;28;20180;-74
2023/12/25 02:01:09;;;;;;;11.93;6.90;;;;;;;8.74;100.00;101035.28;2079503;28;20190;-73
2023/12/25 02:02:10;;;;;;;10.70;6.30;;;;;;;8.70;100.00;101042.81;2079597;28;20430;-74
2023/12/25 02:03:10;;;;;;;9.80;5.60;;;;;;;8.56;100.00;101015.34;2079170;28;20177;-74
2023/12/25 02:04:11;;;;;;;13.40;6.40;;;;;;;8.69;100.00;101039.28;2079434;28;20196;-75
2023/12/25 02:05:12;;;;;;;8.40;5.90;;;;;;;7.66;100.00;100874.94;2078496;28;20190;-74
2023/12/25 02:06:13;;;;;;;11.93;5.93;;;;;;;8.60;100.00;101019.66;2079605;28;20186;-73
2023/12/25 02:07:15;;;;;;;14.07;5.93;;;;;;;8.22;100.00;100971.09;2078389;28;20214;-74
2023/12/25 02:08:17;;;;;;;10.20;5.40;;;;;;;8.49;100.00;101005.16;2079892;28;20432;-74
2023/12/25 02:09:18;;;;;;;12.47;5.70;;;;;;;8.73;100.00;101042.81;2080271;28;20419;-73
2023/12/25 02:10:29;;;;;;;9.10;5.80;;;;;;;8.35;100.00;100974.91;2079988;28;20468;-73
2023/12/25 02:11:29;;;;;;;9.43;5.47;;;;;;;8.74;100.00;101040.81;2079064;28;20448;-74
2023/12/25 02:12:30;;;;;;;9.57;5.20;;;;;;;8.39;100.00;100992.22;2079585;28;20680;-74
2023/12/25 02:13:31;;;;;;;10.83;5.60;;;;;;;8.76;100.00;101043.97;2079586;28;20574;-74
2023/12/25 02:14:32;;;;;;;11.30;5.87;;;;;;;8.74;100.00;101043.59;2078996;28;20661;-75
2023/12/25 02:15:33;;;;;;;7.70;5.20;;;;;;;8.67;100.00;101040.91;2078649;28;20192;-73
2023/12/25 02:16:35;;;;;;;7.13;4.43;;;;;;;8.36;100.00;100997.78;2079915;28;20183;-74
2023/12/25 02:17:36;;;;;;;9.75;4.88;;;;;;;8.14;100.00;100954.94;2079404;28;20187;-75
2023/12/25 02:18:37;;;;;;;8.40;4.90;;;;;;;8.69;100.00;101024.69;2079673;28;20620;-73
2023/12/25 02:19:46;;;;;;;9.23;5.00;;;;;;;8.76;100.00;101028.16;2080215;28;20483;-74
2023/12/25 02:20:48;;;;;;;8.87;4.93;;;;;;;8.65;100.00;100999.06;2080308;28;20762;-74
2023/12/25 02:21:50;;;;;;;8.40;5.10;;;;;;;8.67;100.00;101002.97;2079367;28;20512;-73
2023/12/25 02:22:53;;;;;;;7.27;4.87;;;;;;;8.78;100.00;101022.22;2079703;28;20438;-74
2023/12/25 02:23:59;;;;;;;10.60;5.50;;;;;;;8.16;100.00;100911.94;2079759;28;20538;-74
2023/12/25 02:25:02;;;;;;;9.50;5.57;;;;;;;8.82;100.00;101015.47;2080073;28;20515;-74
2023/12/25 02:26:05;;;;;;;8.67;3.87;;;;;;;8.94;100.00;101017.72;2078780;28;20482;-74
2023/12/25 02:27:06;;;;;;;7.40;4.30;;;;;;;9.02;100.00;101027.47;2079354;28;20535;-74
2023/12/25 02:28:06;;;;;;;8.83;3.97;;;;;;;8.61;100.00;100963.19;2079257;28;20427;-73
2023/12/25 02:29:07;;;;;;;5.40;2.57;;;;;;;9.05;100.00;101014.81;2079597;28;20184;-74
2023/12/25 02:30:07;;;;;;;8.30;4.80;;;;;;;9.05;100.00;100993.50;2080324;28;20625;-73
2023/12/25 02:31:08;;;;;;;7.00;3.50;;;;;;;9.12;100.00;100993.41;2079657;28;20674;-74
2023/12/25 02:32:08;;;;;;;8.73;3.60;;;;;;;9.07;100.00;100971.75;2079501;28;20184;-73
2023/12/25 02:33:09;;;;;;;9.30;4.83;;;;;;;9.09;100.00;100976.88;2080121;28;20621;-73
2023/12/25 02:34:09;;;;;;;6.70;3.80;;;;;;;8.92;100.00;100944.69;2079548;28;20224;-74
2023/12/25 02:35:10;;;;;;;4.83;2.13;;;;;;;9.50;100.00;101016.25;2079601;28;20256;-74
2023/12/25 02:36:10;;;;;;;7.93;4.33;;;;;;;9.41;100.00;100994.63;2080087;28;20177;-73
2023/12/25 02:37:11;;;;;;;6.23;2.23;;;;;;;9.39;100.00;101008.06;2079447;28;20216;-74
2023/12/25 02:38:11;;;;;;;5.43;3.33;;;;;;;9.69;100.00;101018.38;2080323;28;20254;-73
2023/12/25 02:39:12;;;;;;;5.70;2.90;;;;;;;9.63;100.00;100997.91;2079971;28;20624;-74
2023/12/25 02:40:13;;;;;;;7.00;3.07;;;;;;;9.11;100.00;100913.63;2079421;28;20196;-74
2023/12/25 02:41:13;;;;;;;6.13;3.43;;;;;;;9.42;100.00;100957.47;2080033;28;20216;-73
2023/12/25 02:42:14;;;;;;;7.30;3.60;;;;;;;9.84;100.00;101008.66;2079109;28;20190;-73
2023/12/25 02:43:14;;;;;;;5.33;2.40;;;;;;;9.91;100.00;101011.31;2079651;28;20208;-74
2023/12/25 02:44:16;;;;;;;6.23;3.53;;;;;;;9.59;100.00;100972.25;2079411;28;20247;-74
2023/12/25 02:45:16;;;;;;;6.47;2.53;;;;;;;10.00;100.00;101014.34;2079930;28;20279;-73
2023/12/25 02:46:17;;;;;;;7.63;2.90;;;;;;;10.05;100.00;101008.38;2080129;28;20465;-74
2023/12/25 02:47:17;;;;;;;7.27;3.93;;;;;;;10.09;100.00;101012.63;2078742;28;20229;-74
2023/12/25 02:48:19;;;;;;;9.47;3.10;;;;;;;9.79;100.00;100957.31;2079179;28;20271;-73
2023/12/25 02:49:19;;;;;;;6.13;3.37;;;;;;;9.75;100.00;100953.84;2079079;28;20189;-74
2023/12/25 02:50:20;;;;;;;6.90;3.00;;;;;;;9.82;100.00;100966.75;2079402;28;20506;-73
2023/12/25 02:51:20;;;;;;;6.70;3.87;;;;;;;10.16;100.00;101011.75;2079822;28;20662;-74
2023/12/25 02:52:21;;;;;;;7.57;3.93;;;;;;;10.19;100.00;101025.53;2080077;28;20679;-74
2023/12/25 02:53:21;;;;;;;9.60;4.47;;;;;;;10.19;100.00;101017.22;2079142;28;20666;-74
2023/12/25 02:54:22;;;;;;;10.00;4.20;;;;;;;10.15;100.00;101015.72;2079800;28;20246;-73
2023/12/25 02:55:22;;;;;;;5.73;3.40;;;;;;;9.35;100.00;100896.72;2079535;28;20602;-73
2023/12/25 02:56:23;;;;;;;6.07;3.80;;;;;;;10.21;100.00;101006.53;2079522;28;20576;-74
2023/12/25 02:57:23;;;;;;;9.00;4.47;;;;;;;10.21;100.00;101003.75;2079621;28;20683;-74
2023/12/25 02:58:24;;;;;;;6.33;3.87;;;;;;;10.01;100.00;100974.38;2080064;28;20225;-73
2023/12/25 02:59:24;;;;;;;8.73;4.67;;;;;;;10.18;100.00;101015.66;2079780;28;20272;-74
2023/12/25 03:00:25;;;;;;;8.33;3.90;;;;;;;10.28;100.00;101016.69;2079363;28;20346;-74
2023/12/25 03:01:25;;;;;;;9.03;4.00;;;;;;;10.11;100.00;100998.38;2078827;28;20180;-73
2023/12/25 03:02:27;;;;;;;7.97;4.67;;;;;;;10.19;100.00;101022.00;2080612;28;20681;-74
2023/12/25 03:03:28;;;;;;;6.07;2.70;;;;;;;9.93;100.00;100979.25;2081235;28;20697;-73
2023/12/25 03:04:28;;;;;;;8.00;4.43;;;;;;;10.19;100.00;101017.22;2080923;28;20808;-73
2023/12/25 03:05:29;;;;;;;7.70;4.50;;;;;;;10.21;100.00;101019.56;2081513;28;20646;-73
2023/12/25 03:06:30;;;;;;;6.33;3.50;;;;;;;10.19;100.00;101011.69;2081912;28;20181;-74
2023/12/25 03:07:30;;;;;;;7.13;3.13;;;;;;;9.30;100.00;100885.31;2081015;28;20187;-74
2023/12/25 03:08:31;;;;;;;11.70;5.10;;;;;;;10.10;100.00;101003.13;2081081;28;20548;-73
2023/12/25 03:09:31;;;;;;;7.17;3.80;;;;;;;10.16;100.00;101020.84;2081534;28;20650;-74
2023/12/25 03:10:32;;;;;;;9.90;4.83;;;;;;;10.19;100.00;101022.75;2081628;28;20181;-74
2023/12/25 03:11:32;;;;;;;6.63;2.77;;;;;;;10.21;100.00;101025.13;2080579;28;20184;-74
2023/12/25 03:12:33;;;;;;;8.03;4.03;;;;;;;10.24;100.00;101024.28;2081266;28;20251;-74
2023/12/25 03:13:34;;;;;;;6.63;3.50;;;;;;;9.84;100.00;100973.44;2081713;28;20243;-73
2023/12/25 03:14:35;;;;;;;6.33;3.23;;;;;;;10.15;100.00;101013.72;2080084;28;20572;-74
2023/12/25 03:15:35;;;;;;;8.73;3.87;;;;;;;9.21;100.00;100854.63;2081432;28;20741;-74
2023/12/25 03:16:36;;;;;;;7.63;3.80;;;;;;;9.26;100.00;100877.09;2081484;28;20610;-73
2023/12/25 03:17:37;;;;;;;6.87;3.63;;;;;;;10.15;100.00;101013.72;2081458;28;20658;-73
2023/12/25 03:18:37;;;;;;;9.00;3.90;;;;;;;9.66;100.00;100938.94;2079998;28;20274;-73
2023/12/25 03:19:38;;;;;;;5.93;3.77;;;;;;;9.76;100.00;100943.53;2081435;28;20272;-74
2023/12/25 03:20:38;;;;;;;7.60;3.70;;;;;;;9.73;100.00;100945.16;2081517;28;20270;-74
2023/12/25 03:21:38;;;;;;;5.83;2.83;;;;;;;10.15;100.00;100994.34;2081006;28;20200;-73
2023/12/25 03:22:39;;;;;;;7.50;3.70;;;;;;;10.15;100.00;101013.72;2080785;28;20194;-74
2023/12/25 03:23:40;;;;;;;6.37;3.50;;;;;;;10.15;100.00;100999.88;2081360;28;20195;-73
2023/12/25 03:24:40;;;;;;;4.97;3.27;;;;;;;9.99;100.00;100974.78;2081084;28;20209;-73
2023/12/25 03:25:41;;;;;;;6.27;3.63;;;;;;;9.47;100.00;100893.38;2080811;28;20686;-74
2023/12/25 03:26:42;;;;;;;6.00;3.57;;;;;;;10.11;100.00;100999.16;2080867;28;20900;-73
2023/12/25 03:27:43;;;;;;;6.17;3.67;;;;;;;10.14;100.00;101000.31;2081410;28;20186;-73
2023/12/25 03:28:43;;;;;;;8.67;3.70;;;;;;;10.09;100.00;100995.25;2081498;28;20491;-73
2023/12/25 03:29:44;;;;;;;5.30;2.60;;;;;;;8.87;100.00;100810.50;2080512;28;20195;-73
2023/12/25 03:30:44;;;;;;;5.77;2.20;;;;;;;9.66;100.00;100927.88;2080429;28;20277;-74
2023/12/25 03:31:45;;;;;;;8.87;3.77;;;;;;;10.08;100.00;100980.63;2081242;28;20181;-73
2023/12/25 03:32:46;;;;;;;7.17;3.73;;;;;;;10.15;100.00;100994.34;2081424;28;20189;-74
2023/12/25 03:33:46;;;;;;;5.57;2.47;;;;;;;10.20;100.00;100988.31;2081649;28;20246;-74
2023/12/25 03:34:47;;;;;;;9.07;3.87;;;;;;;10.21;100.00;100994.66;2081714;28;20178;-73
2023/12/25 03:35:48;;;;;;;4.53;1.90;;;;;;;9.80;100.00;100933.97;2081578;28;20278;-73
2023/12/25 03:36:48;;;;;;;4.93;2.67;;;;;;;9.91;100.00;100940.13;2080618;28;20443;-74
2023/12/25 03:37:49;;;;;;;7.17;2.67;;;;;;;10.27;100.00;100979.91;2081386;28;20722;-73
2023/12/25 03:38:49;;;;;;;5.73;2.57;;;;;;;10.15;100.00;100969.41;2081501;28;20614;-74
2023/12/25 03:39:51;;;;;;;3.83;1.37;;;;;;;9.97;100.00;100929.34;2081980;28;20219;-74
2023/12/25 03:40:51;;;;;;;5.13;2.97;;;;;;;10.46;100.00;100992.25;2081682;28;20681;-73
2023/12/25 03:41:52;;;;;;;3.47;1.50;;;;;;;10.41;100.00;100985.19;2082158;28;20796;-74
2023/12/25 03:42:54;;;;;;;4.33;1.37;;;;;;;10.36;100.00;100982.13;2081872;28;20185;-74
2023/12/25 03:43:54;;;;;;;3.43;1.67;;;;;;;10.13;100.00;100927.53;2081329;28;20542;-74
2023/12/25 03:44:55;;;;;;;3.30;1.50;;;;;;;10.56;100.00;100983.72;2081951;28;20444;-74
2023/12/25 03:45:56;;;;;;;3.33;1.33;;;;;;;10.68;100.00;100988.66;2081907;28;20189;-74
2023/12/25 03:46:57;;;;;;;7.53;1.40;;;;;;;10.75;100.00;101010.72;2080857;28;20233;-74
2023/12/25 03:47:57;;;;;;;4.33;1.63;;;;;;;10.82;100.00;100993.16;2081412;28;20434;-73
2023/12/25 03:48:58;;;;;;;4.67;1.30;;;;;;;10.88;100.00;100992.25;2082484;28;20273;-74
2023/12/25 03:49:58;;;;;;;8.33;2.03;;;;;;;11.01;100.00;100978.53;2082254;28;20578;-74
2023/12/25 03:50:59;;;;;;;3.37;1.30;;;;;;;11.11;100.00;100977.50;2081903;28;20632;-74
2023/12/25 03:52:01;;;;;;;5.63;1.50;;;;;;;10.83;100.00;100923.44;2080390;28;20266;-74
2023/12/25 03:53:02;;;;;;;3.03;1.17;;;;;;;10.79;100.00;100899.75;2082415;28;20423;-73
2023/12/25 03:54:02;;;;;;;4.60;1.53;;;;;;;11.21;100.00;100946.00;2082183;28;20929;-72
2023/12/25 03:55:03;;;;;;;4.43;1.27;;;;;;;11.51;100.00;100959.63;2082548;28;20264;-73
2023/12/25 03:56:04;;;;;;;4.93;1.20;;;;;;;11.63;100.00;100953.44;2081666;28;20292;-73
2023/12/25 03:57:06;;;;;;;4.77;1.07;;;;;;;11.50;100.00;100916.44;2077741;28;20217;-74
2023/12/25 03:58:07;;;;;;;1.93;0.90;;;;;;;11.52;100.00;100900.91;2082248;28;20181;-74
2023/12/25 03:59:08;;;;;;;4.50;1.03;;;;;;;11.46;100.00;100893.50;2082221;28;20522;-72
2023/12/25 04:00:09;;;;;;;4.97;1.37;;;;;;;11.99;100.00;100959.72;2081174;28;20177;-74
2023/12/25 04:01:10;;;;;;;4.77;1.67;;;;;;;12.09;100.00;100976.13;2081318;28;20434;-73
2023/12/25 04:02:11;;;;;;;4.67;1.03;;;;;;;12.21;100.00;100966.31;2081560;28;21028;-73
2023/12/25 04:03:11;;;;;;;3.47;1.00;;;;;;;12.27;100.00;100968.13;2082144;28;20181;-74
2023/12/25 04:04:12;;;;;;;3.83;1.20;;;;;;;12.36;100.00;100973.06;2081837;28;20191;-74
2023/12/25 04:05:12;;;;;;;4.60;1.27;;;;;;;12.01;100.00;100910.06;2080748;28;20188;-74
2023/12/25 04:06:23;;;;;;;3.77;1.33;;;;;;;12.47;100.00;100968.81;2081993;28;20185;-74
2023/12/25 04:07:23;;;;;;;3.13;1.10;;;;;;;12.51;100.00;100961.13;2082000;28;20567;-73
2023/12/25 04:08:23;;;;;;;2.80;1.20;;;;;;;12.02;100.00;100897.72;2081913;28;20435;-74
2023/12/25 04:09:24;;;;;;;2.20;0.93;;;;;;;12.55;100.00;100975.72;2082138;28;20252;-74
2023/12/25 04:10:24;;;;;;;3.00;1.13;;;;;;;12.19;100.00;100913.94;2082059;28;20647;-72
2023/12/25 04:11:25;;;;;;;5.00;1.10;;;;;;;12.45;100.00;100956.56;2082129;28;20178;-74
2023/12/25 04:12:26;;;;;;;3.80;0.90;;;;;;;12.60;100.00;100963.31;2082235;28;20196;-74
2023/12/25 04:13:26;;;;;;;4.00;1.33;;;;;;;12.79;100.00;100998.53;2081374;28;20567;-73
2023/12/25 04:14:26;;;;;;;3.47;1.20;;;;;;;12.91;100.00;100987.47;2080992;28;20221;-73
2023/12/25 04:15:27;;;;;;;2.67;0.87;;;;;;;12.92;100.00;100993.81;2082175;28;20189;-73
2023/12/25 04:16:27;;;;;;;5.73;1.40;;;;;;;13.00;100.00;100993.22;2082024;28;20189;-73
2023/12/25 04:17:28;;;;;;;3.00;0.97;;;;;;;12.99;100.00;101000.00;2082138;28;20183;-73
2023/12/25 04:18:29;;;;;;;3.53;1.30;;;;;;;13.07;99.82;101001.34;2082209;28;20218;-74
2023/12/25 04:19:29;;;;;;;5.07;1.20;;;;;;;13.10;99.80;100999.69;2082075;28;20251;-73
2023/12/25 04:20:30;;;;;;;2.40;0.87;;;;;;;13.09;99.99;101009.25;2082267;28;20679;-73
2023/12/25 04:21:31;;;;;;;2.90;1.30;;;;;;;12.41;98.86;100906.59;2089693;28;20761;-74
2023/12/25 04:22:32;;;;;;;3.20;1.00;;;;;;;13.09;98.77;101009.25;2089593;28;20182;-73
2023/12/25 04:23:32;;;;;;;4.60;1.17;;;;;;;12.80;98.75;100961.94;2081846;28;20918;-73
2023/12/25 04:24:33;;;;;;;5.37;0.90;;;;;;;12.95;98.96;100988.16;2082118;28;20187;-73
2023/12/25 04:25:33;;;;;;;5.50;1.03;;;;;;;12.99;97.93;100994.44;2081897;28;20272;-73
2023/12/25 04:26:34;;;;;;;5.27;1.13;;;;;;;13.13;96.06;101007.16;2076804;28;20195;-73
2023/12/25 04:27:34;;;;;;;4.00;1.10;;;;;;;13.06;96.54;100987.91;2081401;28;20213;-73
2023/12/25 04:28:35;;;;;;;5.90;1.20;;;;;;;13.10;96.88;101000.47;2081854;28;20275;-73
2023/12/25 04:29:35;;;;;;;2.30;0.97;;;;;;;13.19;96.89;101014.53;2082027;28;20184;-73
2023/12/25 04:30:36;;;;;;;3.73;1.47;;;;;;;13.15;97.06;101005.50;2082284;28;20223;-74
2023/12/25 04:31:36;;;;;;;2.33;0.83;;;;;;;13.10;96.79;101002.47;2081972;28;20186;-74
2023/12/25 04:32:37;;;;;;;5.60;1.23;;;;;;;13.20;96.38;100999.41;2081789;28;20216;-73
2023/12/25 04:33:38;;;;;;;6.77;1.63;;;;;;;12.78;96.05;100933.00;2081564;28;20213;-74
2023/12/25 04:34:38;;;;;;;2.93;0.93;;;;;;;12.73;95.54;100923.22;2081540;28;20194;-73
2023/12/25 04:35:39;;;;;;;5.30;1.20;;;;;;;13.16;94.25;101000.72;2081679;28;20469;-74
2023/12/25 04:36:39;;;;;;;5.20;1.07;;;;;;;13.10;94.29;100996.91;2082123;28;20184;-74
2023/12/25 04:37:40;;;;;;;4.50;0.93;;;;;;;13.08;94.58;100993.78;2081648;28;20188;-74
2023/12/25 04:38:40;;;;;;;2.43;1.00;;;;;;;13.16;94.13;100995.16;2081722;28;20239;-73
2023/12/25 04:39:41;;;;;;;5.03;1.37;;;;;;;13.20;93.36;100996.63;2081964;28;20217;-74
2023/12/25 04:40:42;;;;;;;3.93;1.37;;;;;;;13.19;93.25;100988.69;2081328;28;20292;-73
2023/12/25 04:41:42;;;;;;;1.90;1.10;;;;;;;12.16;92.99;100839.03;2082015;28;20190;-73